createdAt,value
2023-03-05T00:00:45.254Z,19.83
2023-03-05T00:03:11.798Z,15.23
2023-03-05T00:05:38.334Z,17.50
2023-03-05T00:08:04.949Z,19.03
2023-03-05T00:10:31.457Z,20.10
2023-03-05T00:12:57.938Z,18.43
2023-03-05T00:15:24.417Z,18.50
2023-03-05T00:17:50.990Z,18.90
2023-03-05T00:20:17.614Z,30.73
2023-03-05T00:22:44.101Z,39.97
2023-03-05T00:25:10.632Z,29.70
2023-03-05T00:27:37.070Z,24.87
2023-03-05T00:30:03.677Z,21.70
2023-03-05T00:32:30.223Z,29.10
2023-03-05T00:34:56.719Z,21.30
2023-03-05T00:37:23.175Z,18.07
2023-03-05T00:39:49.657Z,12.10
2023-03-05T00:42:16.167Z,15.10
2023-03-05T00:44:42.713Z,15.50
2023-03-05T00:47:09.206Z,15.90
2023-03-05T00:49:35.697Z,20.27
2023-03-05T00:52:02.163Z,25.87
2023-03-05T00:54:28.682Z,20.30
2023-03-05T00:56:55.196Z,15.17
2023-03-05T00:59:21.698Z,12.90
2023-03-05T01:01:48.244Z,14.77
2023-03-05T01:04:14.843Z,13.97
2023-03-05T01:06:44.841Z,12.57
2023-03-05T01:09:11.395Z,17.20
2023-03-05T01:11:37.890Z,15.47
2023-03-05T01:14:04.504Z,17.63
2023-03-05T01:16:31.152Z,16.03
2023-03-05T01:18:57.782Z,10.07
2023-03-05T01:21:24.297Z,11.30
2023-03-05T01:23:50.836Z,13.80
2023-03-05T01:26:17.336Z,14.77
2023-03-05T01:28:43.838Z,9.87
2023-03-05T01:31:10.475Z,7.50
2023-03-05T01:33:37.132Z,11.40
2023-03-05T01:36:06.809Z,11.27
2023-03-05T01:38:33.312Z,13.70
2023-03-05T01:40:59.902Z,11.10
2023-03-05T01:43:27.514Z,11.33
2023-03-05T01:46:12.742Z,7.70
2023-03-05T01:48:39.725Z,8.27
2023-03-05T01:51:06.195Z,8.23
2023-03-05T01:53:32.684Z,11.07
2023-03-05T01:55:59.193Z,9.27
2023-03-05T01:58:25.755Z,9.87
2023-03-05T02:00:52.789Z,8.13
2023-03-05T02:03:19.355Z,11.27
2023-03-05T02:05:45.834Z,6.87
2023-03-05T02:08:13.324Z,10.97
2023-03-05T02:10:40.504Z,10.47
2023-03-05T02:13:07.770Z,11.83
2023-03-05T02:15:34.329Z,8.27
2023-03-05T02:18:01.488Z,7.70
2023-03-05T02:20:29.132Z,9.30
2023-03-05T02:22:55.649Z,11.70
2023-03-05T02:25:23.131Z,10.03
2023-03-05T02:27:52.113Z,10.90
2023-03-05T02:30:18.882Z,7.50
2023-03-05T02:32:45.423Z,10.03
2023-03-05T02:35:11.912Z,6.80
2023-03-05T02:37:38.418Z,9.93
2023-03-05T02:40:05.165Z,12.13
2023-03-05T02:42:34.576Z,8.17
2023-03-05T02:45:01.472Z,11.47
2023-03-05T02:47:28.051Z,9.30
2023-03-05T02:49:54.779Z,10.90
2023-03-05T02:52:23.250Z,13.07
2023-03-05T02:54:50.004Z,9.83
2023-03-05T02:57:16.601Z,7.97
2023-03-05T02:59:43.085Z,10.60
2023-03-05T03:02:09.598Z,17.80
2023-03-05T03:04:36.116Z,19.33
2023-03-05T03:07:02.619Z,15.57
2023-03-05T03:09:29.142Z,14.47
2023-03-05T03:11:55.674Z,14.27
2023-03-05T03:14:22.125Z,11.23
2023-03-05T03:16:48.670Z,18.87
2023-03-05T03:19:15.162Z,10.30
2023-03-05T03:21:41.679Z,9.67
2023-03-05T03:24:08.211Z,13.57
2023-03-05T03:26:34.688Z,17.13
2023-03-05T03:29:01.310Z,16.30
2023-03-05T03:31:27.774Z,18.50
2023-03-05T03:33:54.330Z,17.40
2023-03-05T03:36:20.781Z,22.20
2023-03-05T03:38:47.279Z,18.47
2023-03-05T03:41:13.781Z,16.43
2023-03-05T03:43:40.286Z,20.87
2023-03-05T03:46:07.292Z,23.63
2023-03-05T03:48:34.036Z,20.63
2023-03-05T03:51:00.901Z,20.93
2023-03-05T03:53:27.461Z,16.53
2023-03-05T03:55:57.752Z,23.43
2023-03-05T03:58:24.214Z,21.50
2023-03-05T04:00:50.697Z,18.23
2023-03-05T04:03:17.215Z,18.87
2023-03-05T04:05:43.722Z,21.17
2023-03-05T04:08:12.219Z,20.00
2023-03-05T04:10:39.884Z,16.40
2023-03-05T04:13:06.605Z,17.23
2023-03-05T04:15:33.251Z,13.40
2023-03-05T04:17:59.729Z,17.23
2023-03-05T04:20:26.245Z,15.50
2023-03-05T04:22:52.733Z,16.23
2023-03-05T04:25:19.189Z,18.77
2023-03-05T04:27:45.720Z,10.10
2023-03-05T04:30:12.537Z,14.03
2023-03-05T04:32:39.170Z,13.80
2023-03-05T04:35:05.711Z,12.27
2023-03-05T04:37:32.374Z,14.93
2023-03-05T04:39:58.837Z,11.10
2023-03-05T04:42:25.322Z,12.23
2023-03-05T04:44:51.806Z,12.90
2023-03-05T04:47:18.413Z,10.43
2023-03-05T04:49:44.978Z,8.37
2023-03-05T04:52:12.429Z,10.10
2023-03-05T04:54:38.922Z,8.70
2023-03-05T04:57:05.988Z,8.87
2023-03-05T04:59:32.469Z,9.33
2023-03-05T05:01:58.998Z,9.13
2023-03-05T05:04:25.503Z,7.80
2023-03-05T05:06:54.701Z,12.17
2023-03-05T05:09:21.195Z,9.47
2023-03-05T05:11:47.661Z,7.90
2023-03-05T05:14:14.236Z,12.07
2023-03-05T05:16:40.719Z,12.20
2023-03-05T05:19:08.573Z,9.60
2023-03-05T05:21:35.114Z,12.30
2023-03-05T05:24:01.593Z,13.67
2023-03-05T05:26:28.063Z,9.37
2023-03-05T05:28:54.548Z,7.67
2023-03-05T05:31:21.290Z,11.23
2023-03-05T05:33:49.799Z,9.73
2023-03-05T05:36:16.744Z,12.07
2023-03-05T05:38:43.305Z,10.47
2023-03-05T05:41:10.700Z,14.47
2023-03-05T05:43:37.198Z,12.20
2023-03-05T05:46:13.888Z,11.60
2023-03-05T05:48:40.516Z,8.97
2023-03-05T05:51:17.037Z,12.40
2023-03-05T05:53:43.721Z,9.47
2023-03-05T05:56:10.544Z,11.03
2023-03-05T05:58:37.394Z,11.57
2023-03-05T06:01:11.318Z,12.70
2023-03-05T06:03:37.816Z,11.57
2023-03-05T06:06:06.024Z,9.83
2023-03-05T06:08:32.545Z,10.70
2023-03-05T06:10:59.112Z,11.10
2023-03-05T06:13:25.734Z,11.73
2023-03-05T06:15:58.645Z,11.60
2023-03-05T06:18:25.190Z,9.63
2023-03-05T06:20:57.726Z,11.17
2023-03-05T06:23:24.563Z,13.33
2023-03-05T06:25:51.112Z,14.47
2023-03-05T06:28:17.913Z,13.30
2023-03-05T06:30:44.529Z,11.03
2023-03-05T06:33:11.055Z,12.60
2023-03-05T06:35:38.326Z,12.27
2023-03-05T06:38:04.851Z,6.73
2023-03-05T06:40:31.797Z,9.77
2023-03-05T06:42:58.280Z,8.17
2023-03-05T06:45:24.827Z,9.27
2023-03-05T06:47:51.302Z,11.50
2023-03-05T06:50:17.869Z,9.63
2023-03-05T06:52:44.452Z,11.03
2023-03-05T06:55:11.039Z,6.47
2023-03-05T06:57:37.502Z,5.97
2023-03-05T07:00:10.095Z,9.23
2023-03-05T07:02:39.755Z,7.20
2023-03-05T07:05:06.813Z,9.13
2023-03-05T07:07:33.554Z,5.70
2023-03-05T07:10:00.150Z,5.73
2023-03-05T07:12:26.738Z,10.13
2023-03-05T07:14:53.212Z,7.00
2023-03-05T07:17:19.797Z,8.73
2023-03-05T07:19:46.304Z,9.47
2023-03-05T07:22:12.837Z,10.07
2023-03-05T07:24:39.312Z,7.93
2023-03-05T07:27:06.016Z,8.17
2023-03-05T07:29:32.538Z,7.13
2023-03-05T07:31:59.078Z,8.43
2023-03-05T07:34:27.192Z,12.13
2023-03-05T07:36:54.066Z,7.73
2023-03-05T07:39:20.806Z,8.60
2023-03-05T07:41:47.781Z,11.07
2023-03-05T07:44:14.334Z,13.60
2023-03-05T07:46:41.749Z,12.70
2023-03-05T07:49:08.454Z,9.47
2023-03-05T07:51:35.051Z,11.87
2023-03-05T07:54:01.591Z,12.53
2023-03-05T07:56:32.122Z,18.40
2023-03-05T07:59:02.293Z,15.83
2023-03-05T08:01:29.353Z,21.27
2023-03-05T08:03:56.055Z,22.73
2023-03-05T08:06:22.635Z,25.53
2023-03-05T08:08:49.222Z,25.33
2023-03-05T08:11:15.872Z,27.47
2023-03-05T08:13:42.883Z,30.37
2023-03-05T08:16:14.006Z,33.13
2023-03-05T08:18:40.576Z,34.67
2023-03-05T08:21:07.157Z,36.63
2023-03-05T08:23:34.608Z,34.27
2023-03-05T08:26:01.228Z,35.53
2023-03-05T08:28:27.790Z,34.93
2023-03-05T08:30:54.434Z,31.13
2023-03-05T08:33:20.937Z,38.43
2023-03-05T08:35:47.555Z,32.47
2023-03-05T08:38:14.094Z,34.47
2023-03-05T08:40:40.663Z,34.27
2023-03-05T08:43:07.546Z,32.30
2023-03-05T08:45:34.340Z,34.37
2023-03-05T08:48:00.905Z,32.70
2023-03-05T08:50:27.512Z,29.03
2023-03-05T08:52:54.166Z,24.13
2023-03-05T08:55:20.749Z,27.30
2023-03-05T08:57:47.325Z,23.60
2023-03-05T09:00:14.088Z,24.93
2023-03-05T09:02:40.751Z,25.00
2023-03-05T09:05:07.643Z,27.13
2023-03-05T09:07:34.243Z,23.33
2023-03-05T09:10:00.803Z,22.03
2023-03-05T09:12:27.358Z,20.43
2023-03-05T09:14:57.060Z,23.10
2023-03-05T09:17:23.811Z,23.80
2023-03-05T09:19:50.389Z,22.83
2023-03-05T09:22:16.931Z,20.07
2023-03-05T09:24:44.192Z,26.93
2023-03-05T09:27:10.751Z,22.67
2023-03-05T09:29:37.358Z,19.37
2023-03-05T09:32:04.213Z,20.60
2023-03-05T09:34:30.787Z,21.97
2023-03-05T09:36:57.324Z,23.70
2023-03-05T09:39:23.863Z,23.93
2023-03-05T09:42:05.885Z,19.27
2023-03-05T09:44:32.401Z,19.63
2023-03-05T09:47:17.393Z,19.30
2023-03-05T09:49:50.939Z,21.70
2023-03-05T09:52:21.236Z,21.53
2023-03-05T09:54:48.471Z,21.70
2023-03-05T09:57:22.786Z,18.23
2023-03-05T09:59:59.593Z,18.90
2023-03-05T10:02:34.188Z,15.67
2023-03-05T10:05:13.806Z,22.57
2023-03-05T10:07:41.918Z,21.23
2023-03-05T10:10:16.409Z,20.93
2023-03-05T10:12:44.064Z,21.17
2023-03-05T10:15:14.326Z,24.23
2023-03-05T10:17:44.011Z,25.00
2023-03-05T10:20:19.793Z,24.97
2023-03-05T10:23:04.887Z,19.43
2023-03-05T10:25:49.848Z,28.60
2023-03-05T10:28:19.708Z,22.03
2023-03-05T10:30:54.805Z,26.83
2023-03-05T10:33:39.665Z,26.47
2023-03-05T10:36:11.518Z,22.50
2023-03-05T10:38:51.681Z,19.20
2023-03-05T10:41:21.228Z,13.73
2023-03-05T10:44:17.317Z,16.83
2023-03-05T10:46:44.050Z,15.13
2023-03-05T10:49:21.048Z,16.77
2023-03-05T10:52:08.979Z,16.43
2023-03-05T10:54:35.984Z,17.00
2023-03-05T10:57:14.154Z,16.47
2023-03-05T10:59:48.132Z,11.93
2023-03-05T11:02:14.687Z,15.40
2023-03-05T11:04:41.233Z,17.43
2023-03-05T11:07:16.997Z,14.93
2023-03-05T11:09:43.878Z,15.17
2023-03-05T11:12:11.593Z,13.50
2023-03-05T11:14:42.617Z,16.00
2023-03-05T11:17:28.026Z,16.40
2023-03-05T11:19:55.325Z,15.43
2023-03-05T11:22:22.451Z,10.73
2023-03-05T11:25:03.036Z,13.33
2023-03-05T11:27:35.797Z,13.17
2023-03-05T11:30:02.799Z,12.20
2023-03-05T11:32:29.500Z,8.93
2023-03-05T11:34:56.280Z,14.37
2023-03-05T11:37:26.909Z,11.47
2023-03-05T11:40:13.792Z,8.10
2023-03-05T11:42:40.380Z,11.60
2023-03-05T11:45:07.270Z,14.67
2023-03-05T11:47:35.995Z,13.80
2023-03-05T11:50:05.184Z,12.57
2023-03-05T11:52:33.466Z,8.40
2023-03-05T11:55:06.174Z,11.40
2023-03-05T11:57:39.650Z,9.07
2023-03-05T12:00:12.703Z,9.97
2023-03-05T12:02:39.354Z,7.23
2023-03-05T12:05:06.846Z,4.80
2023-03-05T12:07:35.114Z,8.90
2023-03-05T12:10:02.078Z,9.80
2023-03-05T12:12:47.022Z,7.83
2023-03-05T12:15:25.811Z,70.80
2023-03-05T12:17:58.375Z,6.40
2023-03-05T12:20:41.161Z,13.40
2023-03-05T12:23:12.019Z,7.27
2023-03-05T12:25:46.501Z,8.53
2023-03-05T12:28:16.960Z,8.80
2023-03-05T12:30:43.656Z,7.90
2023-03-05T12:33:29.126Z,8.17
2023-03-05T12:36:07.553Z,8.93
2023-03-05T12:38:34.588Z,8.27
2023-03-05T12:41:19.799Z,5.67
2023-03-05T12:43:46.348Z,10.17
2023-03-05T12:46:23.817Z,6.13
2023-03-05T12:48:50.462Z,4.27
2023-03-05T12:51:28.292Z,6.60
2023-03-05T12:53:55.298Z,4.33
2023-03-05T12:56:22.462Z,6.60
2023-03-05T12:58:52.778Z,9.37
2023-03-05T13:01:40.693Z,3.27
2023-03-05T13:04:11.284Z,3.20
2023-03-05T13:06:38.607Z,4.70
2023-03-05T13:09:08.052Z,6.13
2023-03-05T13:11:35.198Z,7.43
2023-03-05T13:14:01.756Z,5.03
2023-03-05T13:16:29.357Z,4.27
2023-03-05T13:18:59.569Z,4.23
2023-03-05T13:21:27.129Z,7.33
2023-03-05T13:23:57.975Z,3.23
2023-03-05T13:26:28.546Z,3.90
2023-03-05T13:29:04.138Z,5.67
2023-03-05T13:31:30.680Z,4.33
2023-03-05T13:33:58.251Z,2.97
2023-03-05T13:36:25.231Z,3.60
2023-03-05T13:38:51.774Z,2.90
2023-03-05T13:41:19.877Z,4.90
2023-03-05T13:43:56.373Z,5.23
2023-03-05T13:46:27.422Z,3.93
2023-03-05T13:48:54.168Z,5.23
2023-03-05T13:51:20.682Z,6.63
2023-03-05T13:53:47.275Z,5.93
2023-03-05T13:56:14.755Z,4.77
2023-03-05T13:58:52.541Z,7.07
2023-03-05T14:01:22.237Z,5.93
2023-03-05T14:03:49.489Z,4.57
2023-03-05T14:06:16.052Z,2.57
2023-03-05T14:08:43.041Z,4.30
2023-03-05T14:11:15.706Z,6.93
2023-03-05T14:13:42.236Z,4.27
2023-03-05T14:16:09.812Z,4.27
2023-03-05T14:18:36.661Z,3.70
2023-03-05T14:21:03.216Z,6.77
2023-03-05T14:23:32.879Z,12.87
2023-03-05T14:26:17.461Z,5.53
2023-03-05T14:28:44.024Z,4.97
2023-03-05T14:31:15.336Z,6.53
2023-03-05T14:33:41.932Z,7.00
2023-03-05T14:36:08.445Z,9.47
2023-03-05T14:38:35.257Z,6.50
2023-03-05T14:41:20.975Z,6.53
2023-03-05T14:43:47.795Z,9.10
2023-03-05T14:46:15.740Z,7.10
2023-03-05T14:48:42.312Z,7.17
2023-03-05T14:51:09.248Z,7.03
2023-03-05T14:53:38.526Z,8.10
2023-03-05T14:56:05.232Z,8.27
2023-03-05T14:58:32.533Z,8.23
2023-03-05T15:00:59.168Z,8.67
2023-03-05T15:03:25.805Z,11.17
2023-03-05T15:05:52.995Z,13.63
2023-03-05T15:08:19.784Z,5.57
2023-03-05T15:10:46.572Z,9.13
2023-03-05T15:13:13.592Z,6.13
2023-03-05T15:15:40.345Z,6.10
2023-03-05T15:18:07.267Z,5.37
2023-03-05T15:20:33.905Z,6.67
2023-03-05T15:23:00.756Z,7.80
2023-03-05T15:25:28.836Z,7.07
2023-03-05T15:27:55.403Z,5.60
2023-03-05T15:30:23.382Z,3.70
2023-03-05T15:32:50.427Z,2.57
2023-03-05T15:35:17.190Z,2.30
2023-03-05T15:37:43.670Z,3.27
2023-03-05T15:40:10.614Z,3.53
2023-03-05T15:42:37.277Z,5.03
2023-03-05T15:45:04.170Z,5.57
2023-03-05T15:47:33.390Z,16.57
2023-03-05T15:50:00.127Z,10.67
2023-03-05T15:52:26.666Z,9.60
2023-03-05T15:54:53.339Z,7.20
2023-03-05T15:57:21.845Z,5.93
2023-03-05T15:59:48.733Z,4.90
2023-03-05T16:02:15.501Z,7.60
2023-03-05T16:04:42.069Z,8.30
2023-03-05T16:07:08.614Z,11.73
2023-03-05T16:09:39.286Z,10.33
2023-03-05T16:12:07.509Z,10.10
2023-03-05T16:14:34.112Z,8.07
2023-03-05T16:17:00.787Z,11.57
2023-03-05T16:19:27.658Z,8.27
2023-03-05T16:21:54.169Z,12.30
2023-03-05T16:24:20.701Z,10.37
2023-03-05T16:26:47.298Z,13.23
2023-03-05T16:29:14.517Z,9.67
2023-03-05T16:31:43.278Z,9.83
2023-03-05T16:34:09.936Z,8.47
2023-03-05T16:36:36.560Z,10.37
2023-03-05T16:39:03.772Z,14.67
2023-03-05T16:41:30.369Z,13.73
2023-03-05T16:43:57.012Z,13.93
2023-03-05T16:46:24.211Z,21.77
2023-03-05T16:48:50.726Z,19.40
2023-03-05T16:51:18.109Z,17.20
2023-03-05T16:53:46.986Z,16.40
2023-03-05T16:56:14.085Z,16.57
2023-03-05T16:58:40.896Z,16.70
2023-03-05T17:01:15.491Z,16.60
2023-03-05T17:03:43.690Z,17.13
2023-03-05T17:06:13.347Z,21.80
2023-03-05T17:08:40.699Z,20.70
2023-03-05T17:11:07.260Z,18.40
2023-03-05T17:13:33.808Z,20.60
2023-03-05T17:16:00.404Z,16.37
2023-03-05T17:18:27.016Z,11.50
2023-03-05T17:20:53.737Z,18.23
2023-03-05T17:23:20.193Z,14.00
2023-03-05T17:25:47.027Z,14.07
2023-03-05T17:28:13.534Z,12.47
2023-03-05T17:30:40.080Z,14.17
2023-03-05T17:33:06.846Z,19.17
2023-03-05T17:35:35.280Z,12.47
2023-03-05T17:38:05.407Z,13.60
2023-03-05T17:40:32.333Z,12.33
2023-03-05T17:42:58.828Z,12.13
2023-03-05T17:45:25.454Z,14.90
2023-03-05T17:47:53.036Z,14.37
2023-03-05T17:50:20.161Z,13.40
2023-03-05T17:52:46.769Z,14.30
2023-03-05T17:55:14.957Z,14.97
2023-03-05T17:57:41.817Z,18.97
2023-03-05T18:00:18.437Z,15.73
2023-03-05T18:02:45.010Z,16.13
2023-03-05T18:05:11.747Z,24.90
2023-03-05T18:07:38.310Z,22.33
2023-03-05T18:10:05.168Z,25.23
2023-03-05T18:12:31.703Z,24.50
2023-03-05T18:14:58.404Z,24.37
2023-03-05T18:17:24.936Z,29.47
2023-03-05T18:19:51.646Z,29.83
2023-03-05T18:22:18.147Z,34.00
2023-03-05T18:24:44.763Z,27.77
2023-03-05T18:27:11.358Z,25.30
2023-03-05T18:29:38.093Z,29.23
2023-03-05T18:32:04.802Z,29.83
2023-03-05T18:34:31.559Z,31.63
2023-03-05T18:37:00.498Z,33.27
2023-03-05T18:39:29.349Z,29.93
2023-03-05T18:41:56.036Z,30.00
2023-03-05T18:44:22.590Z,32.73
2023-03-05T18:46:49.142Z,26.60
2023-03-05T18:49:15.743Z,24.37
2023-03-05T18:51:42.285Z,19.53
2023-03-05T18:54:09.228Z,19.13
2023-03-05T18:56:35.807Z,20.77
2023-03-05T18:59:02.442Z,24.27
2023-03-05T19:01:29.113Z,19.67
2023-03-05T19:03:56.191Z,19.07
2023-03-05T19:06:22.806Z,20.33
2023-03-05T19:08:57.182Z,18.10
2023-03-05T19:11:23.774Z,23.93
2023-03-05T19:13:50.674Z,19.53
2023-03-05T19:16:21.851Z,20.17
2023-03-05T19:19:05.557Z,19.33
2023-03-05T19:21:32.082Z,23.10
2023-03-05T19:23:58.634Z,17.00
2023-03-05T19:26:25.421Z,18.87
2023-03-05T19:28:51.960Z,14.33
2023-03-05T19:31:18.803Z,12.73
2023-03-05T19:33:45.509Z,17.00
2023-03-05T19:36:12.191Z,15.77
2023-03-05T19:38:38.915Z,15.50
2023-03-05T19:41:05.673Z,19.43
2023-03-05T19:43:32.578Z,19.13
2023-03-05T19:46:02.873Z,19.07
2023-03-05T19:48:29.897Z,23.23
2023-03-05T19:50:56.590Z,22.00
2023-03-05T19:53:23.216Z,22.17
2023-03-05T19:55:50.000Z,23.70
2023-03-05T19:58:16.707Z,21.67
2023-03-05T20:00:43.555Z,25.40
2023-03-05T20:03:10.406Z,26.87
2023-03-05T20:05:36.994Z,30.10
2023-03-05T20:08:03.708Z,33.90
2023-03-05T20:10:30.289Z,48.50
2023-03-05T20:12:57.831Z,44.63
2023-03-05T20:15:29.254Z,42.13
2023-03-05T20:17:57.119Z,37.00
2023-03-05T20:20:23.895Z,27.53
2023-03-05T20:22:50.511Z,26.33
2023-03-05T20:25:17.808Z,31.63
2023-03-05T20:27:44.371Z,31.13
2023-03-05T20:30:11.689Z,24.13
2023-03-05T20:32:38.510Z,24.13
2023-03-05T20:35:05.482Z,26.43
2023-03-05T20:37:40.110Z,24.83
2023-03-05T20:40:07.519Z,22.53
2023-03-05T20:42:34.055Z,34.80
2023-03-05T20:45:01.723Z,32.67
2023-03-05T20:47:38.162Z,38.07
2023-03-05T20:50:04.990Z,32.53
2023-03-05T20:52:31.635Z,30.47
2023-03-05T20:54:58.789Z,30.13
2023-03-05T20:57:25.356Z,30.67
2023-03-05T20:59:52.029Z,32.60
2023-03-05T21:02:18.656Z,32.90
2023-03-05T21:04:45.523Z,36.60
2023-03-05T21:07:12.097Z,34.53
2023-03-05T21:09:38.806Z,29.87
2023-03-05T21:12:05.538Z,31.90
2023-03-05T21:14:37.690Z,31.93
2023-03-05T21:17:04.553Z,28.13
2023-03-05T21:19:33.615Z,22.13
2023-03-05T21:22:00.185Z,26.87
2023-03-05T21:24:32.855Z,28.97
2023-03-05T21:26:59.414Z,25.37
2023-03-05T21:29:25.921Z,33.60
2023-03-05T21:31:52.522Z,51.23
2023-03-05T21:34:19.623Z,48.20
2023-03-05T21:36:46.187Z,40.57
2023-03-05T21:39:12.763Z,47.13
2023-03-05T21:41:39.307Z,55.07
2023-03-05T21:44:06.286Z,37.93
2023-03-05T21:46:32.993Z,53.90
2023-03-05T21:48:59.626Z,52.37
2023-03-05T21:51:30.668Z,42.37
2023-03-05T21:53:57.465Z,38.37
2023-03-05T21:56:25.999Z,36.63
2023-03-05T21:58:52.712Z,32.93
2023-03-05T22:01:21.139Z,37.23
2023-03-05T22:03:47.981Z,31.30
2023-03-05T22:06:14.946Z,26.70
2023-03-05T22:08:41.591Z,35.63
2023-03-05T22:11:09.392Z,37.87
2023-03-05T22:13:36.347Z,31.87
2023-03-05T22:16:02.831Z,33.63
2023-03-05T22:18:30.249Z,40.30
2023-03-05T22:20:57.023Z,41.70
2023-03-05T22:23:24.068Z,43.20
2023-03-05T22:25:57.485Z,42.87
2023-03-05T22:28:24.051Z,39.50
2023-03-05T22:30:50.614Z,39.03
2023-03-05T22:33:17.265Z,33.07
2023-03-05T22:35:43.878Z,35.03
2023-03-05T22:38:10.605Z,31.07
2023-03-05T22:40:37.798Z,34.93
2023-03-05T22:43:04.604Z,33.27
2023-03-05T22:45:31.144Z,27.70
2023-03-05T22:47:57.818Z,23.43
2023-03-05T22:50:24.453Z,33.03
2023-03-05T22:52:51.142Z,27.50
2023-03-05T22:55:17.717Z,25.03
2023-03-05T22:57:44.419Z,24.37
2023-03-05T23:00:15.101Z,27.77
2023-03-05T23:02:41.915Z,27.53
2023-03-05T23:05:08.854Z,28.50
2023-03-05T23:07:35.940Z,29.50
2023-03-05T23:10:07.273Z,29.63
2023-03-05T23:12:34.329Z,31.60
2023-03-05T23:15:01.366Z,26.80
2023-03-05T23:17:27.876Z,33.10
2023-03-05T23:19:54.471Z,30.40
2023-03-05T23:22:21.058Z,31.90
2023-03-05T23:24:47.724Z,34.67
2023-03-05T23:27:14.821Z,37.33
2023-03-05T23:30:10.588Z,31.57
2023-03-05T23:32:37.128Z,25.27
2023-03-05T23:35:03.946Z,24.20
2023-03-05T23:37:30.434Z,27.53
2023-03-05T23:39:56.931Z,27.93
2023-03-05T23:42:23.579Z,30.13
2023-03-05T23:44:50.105Z,28.23
2023-03-05T23:47:16.633Z,31.03
2023-03-05T23:49:43.174Z,28.17
2023-03-05T23:52:09.730Z,25.80
2023-03-05T23:54:36.182Z,25.70
2023-03-05T23:57:02.796Z,29.87
2023-03-05T23:59:29.318Z,23.40
